createdAt,value
2023-04-01T00:01:06.940Z,6.10
2023-04-01T00:03:34.852Z,6.13
2023-04-01T00:06:02.334Z,6.09
2023-04-01T00:08:29.918Z,6.14
2023-04-01T00:10:58.113Z,6.15
2023-04-01T00:13:27.200Z,6.14
2023-04-01T00:15:54.892Z,6.15
2023-04-01T00:18:22.496Z,6.12
2023-04-01T00:20:50.325Z,6.14
2023-04-01T00:23:17.832Z,6.10
2023-04-01T00:25:46.305Z,6.11
2023-04-01T00:28:13.520Z,6.11
2023-04-01T00:30:40.676Z,6.06
2023-04-01T00:33:07.938Z,6.07
2023-04-01T00:35:35.671Z,6.07
2023-04-01T00:38:02.853Z,6.03
2023-04-01T00:40:31.844Z,6.04
2023-04-01T00:42:59.049Z,6.05
2023-04-01T00:45:39.123Z,6.05
2023-04-01T00:48:09.734Z,6.07
2023-04-01T00:50:38.103Z,5.99
2023-04-01T00:53:06.495Z,5.99
2023-04-01T00:55:36.220Z,6.04
2023-04-01T00:58:06.207Z,6.06
2023-04-01T01:00:34.746Z,6.05
2023-04-01T01:03:03.604Z,6.06
2023-04-01T01:05:48.410Z,6.03
2023-04-01T01:08:31.395Z,6.04
2023-04-01T01:10:58.494Z,6.05
2023-04-01T01:13:37.065Z,6.01
2023-04-01T01:16:11.577Z,6.05
2023-04-01T01:18:38.653Z,6.02
2023-04-01T01:21:24.562Z,6.02
2023-04-01T01:23:57.938Z,6.00
2023-04-01T01:26:27.244Z,5.99
2023-04-01T01:29:12.961Z,6.01
2023-04-01T01:31:46.362Z,5.99
2023-04-01T01:34:13.507Z,6.00
2023-04-01T01:36:43.611Z,5.99
2023-04-01T01:39:10.885Z,6.05
2023-04-01T01:41:39.981Z,6.06
2023-04-01T01:44:08.324Z,6.03
2023-04-01T01:46:36.416Z,5.99
2023-04-01T01:49:04.120Z,5.99
2023-04-01T01:51:31.591Z,6.02
2023-04-01T01:54:00.264Z,6.05
2023-04-01T01:56:28.974Z,6.02
2023-04-01T01:59:09.473Z,6.00
2023-04-01T02:01:39.399Z,6.05
2023-04-01T02:04:12.158Z,6.00
2023-04-01T02:06:43.233Z,6.04
2023-04-01T02:09:11.714Z,6.01
2023-04-01T02:11:42.538Z,5.96
2023-04-01T02:14:16.565Z,5.94
2023-04-01T02:16:51.558Z,6.00
2023-04-01T02:19:23.579Z,5.91
2023-04-01T02:21:54.103Z,5.92
2023-04-01T02:24:23.393Z,5.86
2023-04-01T02:26:52.371Z,5.89
2023-04-01T02:29:21.557Z,5.90
2023-04-01T02:31:49.996Z,5.87
2023-04-01T02:34:17.386Z,5.89
2023-04-01T02:36:44.822Z,5.84
2023-04-01T02:39:13.914Z,5.87
2023-04-01T02:41:41.745Z,5.87
2023-04-01T02:44:09.185Z,5.85
2023-04-01T02:46:36.860Z,5.86
2023-04-01T02:49:05.724Z,5.76
2023-04-01T02:51:33.175Z,5.79
2023-04-01T02:54:00.591Z,5.75
2023-04-01T02:56:28.014Z,5.77
2023-04-01T02:58:55.404Z,5.82
2023-04-01T03:01:23.199Z,5.84
2023-04-01T03:03:50.491Z,5.81
2023-04-01T03:06:17.563Z,5.77
2023-04-01T03:08:44.762Z,5.79
2023-04-01T03:11:12.105Z,5.75
2023-04-01T03:13:39.297Z,5.82
2023-04-01T03:16:06.604Z,5.83
2023-04-01T03:18:33.738Z,5.78
2023-04-01T03:21:23.616Z,5.80
2023-04-01T03:23:51.152Z,5.78
2023-04-01T03:26:18.270Z,5.72
2023-04-01T03:28:45.501Z,5.70
2023-04-01T03:31:13.113Z,5.67
2023-04-01T03:33:46.938Z,5.73
2023-04-01T03:36:14.269Z,5.74
2023-04-01T03:38:42.417Z,5.77
2023-04-01T03:41:13.021Z,5.72
2023-04-01T03:43:40.324Z,5.73
2023-04-01T03:46:07.529Z,5.77
2023-04-01T03:48:34.739Z,5.72
2023-04-01T03:51:01.852Z,5.72
2023-04-01T03:53:29.135Z,5.65
2023-04-01T03:55:59.453Z,5.60
2023-04-01T03:58:26.527Z,5.60
2023-04-01T04:00:54.452Z,5.61
2023-04-01T04:03:21.633Z,5.63
2023-04-01T04:05:49.201Z,5.58
2023-04-01T04:08:17.741Z,5.51
2023-04-01T04:10:45.688Z,5.54
2023-04-01T04:13:12.743Z,5.43
2023-04-01T04:15:46.217Z,5.48
2023-04-01T04:18:13.297Z,5.41
2023-04-01T04:20:46.568Z,5.40
2023-04-01T04:23:13.676Z,5.36
2023-04-01T04:25:41.767Z,5.34
2023-04-01T04:28:08.942Z,5.34
2023-04-01T04:30:36.084Z,5.22
2023-04-01T04:33:04.359Z,5.23
2023-04-01T04:35:32.173Z,5.26
2023-04-01T04:37:59.489Z,5.31
2023-04-01T04:40:26.720Z,5.28
2023-04-01T04:42:53.900Z,5.26
2023-04-01T04:45:21.221Z,5.32
2023-04-01T04:47:54.930Z,5.34
2023-04-01T04:50:22.097Z,5.35
2023-04-01T04:52:49.195Z,5.39
2023-04-01T04:55:16.577Z,5.33
2023-04-01T04:57:47.244Z,5.31
2023-04-01T05:00:14.453Z,5.32
2023-04-01T05:02:55.527Z,5.37
2023-04-01T05:05:22.771Z,5.32
2023-04-01T05:07:49.795Z,5.35
2023-04-01T05:10:17.041Z,5.36
2023-04-01T05:12:44.160Z,5.36
2023-04-01T05:15:16.129Z,5.39
2023-04-01T05:17:43.493Z,5.42
2023-04-01T05:20:12.580Z,5.38
2023-04-01T05:22:39.911Z,5.43
2023-04-01T05:25:07.260Z,5.43
2023-04-01T05:27:34.587Z,5.45
2023-04-01T05:30:01.829Z,5.43
2023-04-01T05:32:46.127Z,5.46
2023-04-01T05:35:13.227Z,5.46
2023-04-01T05:37:40.277Z,5.47
2023-04-01T05:40:07.631Z,5.49
2023-04-01T05:42:36.763Z,5.53
2023-04-01T05:45:05.690Z,5.54
2023-04-01T05:47:51.355Z,5.59
2023-04-01T05:50:19.236Z,5.56
2023-04-01T05:52:46.448Z,5.59
2023-04-01T05:55:13.621Z,5.61
2023-04-01T05:57:40.786Z,5.61
2023-04-01T06:00:08.113Z,5.64
2023-04-01T06:02:42.920Z,5.61
2023-04-01T06:05:13.508Z,5.62
2023-04-01T06:07:41.070Z,5.62
2023-04-01T06:10:19.571Z,5.64
2023-04-01T06:12:53.373Z,5.66
2023-04-01T06:15:33.826Z,5.68
2023-04-01T06:18:15.124Z,5.67
2023-04-01T06:21:01.410Z,5.71
2023-04-01T06:23:31.203Z,5.73
2023-04-01T06:26:24.692Z,5.79
2023-04-01T06:29:05.834Z,5.81
2023-04-01T06:31:47.879Z,5.88
2023-04-01T06:34:31.672Z,5.93
2023-04-01T06:37:17.397Z,5.96
2023-04-01T06:39:47.906Z,5.96
2023-04-01T06:42:18.108Z,6.04
2023-04-01T06:44:56.442Z,6.04
2023-04-01T06:47:56.016Z,6.08
2023-04-01T06:50:56.783Z,6.13
2023-04-01T06:53:57.395Z,6.20
2023-04-01T06:56:50.994Z,6.25
2023-04-01T06:59:26.783Z,6.28
2023-04-01T07:01:56.483Z,6.48
2023-04-01T07:04:30.623Z,6.46
2023-04-01T07:06:59.703Z,6.39
2023-04-01T07:09:32.197Z,6.43
2023-04-01T07:12:31.774Z,6.64
2023-04-01T07:15:22.104Z,6.63
2023-04-01T07:17:53.724Z,6.76
2023-04-01T07:20:24.081Z,6.75
2023-04-01T07:22:53.502Z,6.69
2023-04-01T07:25:44.652Z,6.62
2023-04-01T07:28:31.202Z,6.81
2023-04-01T07:31:04.579Z,6.83
2023-04-01T07:33:40.415Z,6.98
2023-04-01T07:36:25.425Z,7.17
2023-04-01T07:38:59.082Z,7.41
2023-04-01T07:41:57.567Z,7.94
2023-04-01T07:44:43.621Z,8.61
2023-04-01T07:47:26.681Z,8.32
2023-04-01T07:50:02.891Z,8.19
2023-04-01T07:52:32.776Z,8.55
2023-04-01T07:55:15.285Z,8.35
2023-04-01T07:57:48.189Z,8.32
2023-04-01T08:00:24.012Z,8.46
2023-04-01T08:03:02.550Z,8.23
2023-04-01T08:05:31.786Z,8.55
2023-04-01T08:08:26.371Z,9.06
2023-04-01T08:11:25.342Z,8.90
2023-04-01T08:14:33.476Z,9.09
2023-04-01T08:17:46.815Z,8.88
2023-04-01T08:20:29.637Z,8.88
2023-04-01T08:23:03.031Z,8.99
2023-04-01T08:25:38.501Z,9.01
2023-04-01T08:28:16.990Z,8.97
2023-04-01T08:30:47.166Z,8.69
2023-04-01T08:33:18.262Z,8.62
2023-04-01T08:35:59.292Z,8.54
2023-04-01T08:38:41.531Z,8.47
2023-04-01T08:41:19.171Z,8.25
2023-04-01T08:44:18.240Z,8.48
2023-04-01T08:46:49.848Z,8.54
2023-04-01T08:49:42.948Z,8.37
2023-04-01T08:52:17.509Z,8.25
2023-04-01T08:54:57.184Z,8.08
2023-04-01T08:57:51.485Z,8.35
2023-04-01T09:01:18.229Z,8.14
2023-04-01T09:04:04.442Z,8.21
2023-04-01T09:06:37.652Z,8.22
2023-04-01T09:09:11.460Z,8.22
2023-04-01T09:11:56.047Z,8.26
2023-04-01T09:14:38.622Z,8.06
2023-04-01T09:17:35.855Z,8.07
2023-04-01T09:20:03.127Z,8.01
2023-04-01T09:22:48.989Z,7.82
2023-04-01T09:25:48.590Z,7.81
2023-04-01T09:28:26.214Z,7.90
2023-04-01T09:31:02.889Z,7.96
2023-04-01T09:33:49.020Z,7.97
2023-04-01T09:36:18.843Z,7.98
2023-04-01T09:38:58.007Z,7.88
2023-04-01T09:41:33.270Z,7.91
2023-04-01T09:44:40.428Z,7.91
2023-04-01T09:47:14.868Z,8.03
2023-04-01T09:49:59.304Z,7.99
2023-04-01T09:52:44.146Z,8.04
2023-04-01T09:55:34.681Z,8.15
2023-04-01T09:58:02.044Z,8.07
2023-04-01T10:01:10.742Z,8.26
2023-04-01T10:04:05.413Z,8.32
2023-04-01T10:06:45.000Z,8.46
2023-04-01T10:09:39.484Z,8.27
2023-04-01T10:12:09.548Z,8.31
2023-04-01T10:14:55.658Z,8.19
2023-04-01T10:17:23.024Z,8.34
2023-04-01T10:20:09.189Z,8.21
2023-04-01T10:22:54.058Z,8.18
2023-04-01T10:25:35.960Z,8.19
2023-04-01T10:28:08.684Z,8.19
2023-04-01T10:31:05.034Z,8.11
2023-04-01T10:33:51.348Z,8.13
2023-04-01T10:36:18.782Z,8.15
2023-04-01T10:39:06.972Z,8.11
2023-04-01T10:41:34.436Z,8.08
2023-04-01T10:44:38.553Z,8.08
2023-04-01T10:47:25.401Z,8.13
2023-04-01T10:50:11.203Z,8.00
2023-04-01T10:52:50.822Z,8.01
2023-04-01T10:55:33.400Z,7.88
2023-04-01T10:58:19.556Z,7.89
2023-04-01T11:01:25.606Z,7.86
2023-04-01T11:04:23.790Z,7.91
2023-04-01T11:07:23.189Z,7.92
2023-04-01T11:10:09.305Z,7.97
2023-04-01T11:13:02.378Z,7.92
2023-04-01T11:15:45.893Z,7.94
2023-04-01T11:18:31.641Z,7.99
2023-04-01T11:21:17.788Z,7.91
2023-04-01T11:24:03.936Z,7.94
2023-04-01T11:26:36.705Z,7.97
2023-04-01T11:29:23.699Z,8.01
2023-04-01T11:31:56.104Z,7.91
2023-04-01T11:34:25.694Z,7.76
2023-04-01T11:37:20.659Z,7.85
2023-04-01T11:40:17.167Z,7.64
2023-04-01T11:43:32.339Z,7.65
2023-04-01T11:46:35.190Z,7.60
2023-04-01T11:49:17.425Z,7.55
2023-04-01T11:52:10.392Z,7.52
2023-04-01T11:54:56.334Z,7.54
2023-04-01T11:57:41.330Z,7.46
2023-04-01T12:00:27.038Z,7.51
2023-04-01T12:03:03.341Z,7.51
2023-04-01T12:05:50.888Z,7.57
2023-04-01T12:08:27.311Z,7.59
2023-04-01T12:11:00.848Z,7.51
2023-04-01T12:13:33.916Z,7.52
2023-04-01T12:16:22.547Z,7.46
2023-04-01T12:18:53.857Z,7.41
2023-04-01T12:21:26.371Z,7.46
2023-04-01T12:24:03.549Z,7.46
2023-04-01T12:26:36.823Z,7.46
2023-04-01T12:29:13.714Z,7.53
2023-04-01T12:31:40.961Z,7.49
2023-04-01T12:34:17.228Z,7.48
2023-04-01T12:36:57.756Z,7.52
2023-04-01T12:39:42.288Z,7.45
2023-04-01T12:42:12.521Z,7.52
2023-04-01T12:44:45.764Z,7.44
2023-04-01T12:47:25.099Z,7.42
2023-04-01T12:50:11.195Z,7.46
2023-04-01T12:53:04.784Z,7.50
2023-04-01T12:55:31.936Z,7.50
2023-04-01T12:58:08.467Z,7.53
2023-04-01T13:01:10.903Z,7.49
2023-04-01T13:03:50.176Z,7.43
2023-04-01T13:06:18.563Z,7.45
2023-04-01T13:09:04.023Z,7.50
2023-04-01T13:11:49.819Z,7.53
2023-04-01T13:14:29.148Z,7.48
2023-04-01T13:17:06.606Z,7.45
2023-04-01T13:20:02.466Z,7.45
2023-04-01T13:22:34.588Z,7.42
2023-04-01T13:25:14.997Z,7.45
2023-04-01T13:27:44.805Z,7.50
2023-04-01T13:31:04.450Z,7.45
2023-04-01T13:33:57.605Z,7.45
2023-04-01T13:36:30.473Z,7.44
2023-04-01T13:39:03.037Z,7.40
2023-04-01T13:41:40.421Z,7.39
2023-04-01T13:44:10.469Z,7.45
2023-04-01T13:46:40.327Z,7.42
2023-04-01T13:49:07.525Z,7.42
2023-04-01T13:51:57.099Z,7.45
2023-04-01T13:54:27.186Z,7.48
2023-04-01T13:57:06.315Z,7.51
2023-04-01T13:59:39.564Z,7.52
2023-04-01T14:02:16.068Z,7.51
2023-04-01T14:04:46.317Z,7.55
2023-04-01T14:07:19.549Z,7.52
2023-04-01T14:09:54.381Z,7.53
2023-04-01T14:12:21.457Z,7.58
2023-04-01T14:15:07.024Z,7.56
2023-04-01T14:17:49.241Z,7.57
2023-04-01T14:20:31.476Z,7.63
2023-04-01T14:22:58.487Z,7.65
2023-04-01T14:25:25.611Z,7.59
2023-04-01T14:27:56.054Z,7.62
2023-04-01T14:30:41.941Z,7.64
2023-04-01T14:33:18.084Z,7.66
2023-04-01T14:35:51.238Z,7.75
2023-04-01T14:38:33.387Z,7.74
2023-04-01T14:41:18.155Z,7.73
2023-04-01T14:44:04.870Z,7.74
2023-04-01T14:46:50.317Z,7.77
2023-04-01T14:49:23.280Z,7.74
2023-04-01T14:51:52.806Z,7.78
2023-04-01T14:54:31.768Z,7.74
2023-04-01T14:57:10.428Z,7.82
2023-04-01T14:59:40.591Z,7.82
2023-04-01T15:02:13.466Z,7.72
2023-04-01T15:04:55.622Z,7.77
2023-04-01T15:07:35.223Z,7.72
2023-04-01T15:10:02.381Z,7.68
2023-04-01T15:12:45.732Z,7.61
2023-04-01T15:15:37.172Z,7.65
2023-04-01T15:18:04.429Z,7.61
2023-04-01T15:20:34.928Z,7.64
2023-04-01T15:23:22.466Z,7.65
2023-04-01T15:26:01.394Z,7.64
2023-04-01T15:28:28.539Z,7.63
2023-04-01T15:31:13.863Z,7.60
2023-04-01T15:33:56.623Z,7.60
2023-04-01T15:36:45.719Z,7.59
2023-04-01T15:39:18.611Z,7.55
2023-04-01T15:42:24.023Z,7.56
2023-04-01T15:44:53.907Z,7.51
2023-04-01T15:47:21.145Z,7.51
2023-04-01T15:49:55.365Z,7.50
2023-04-01T15:52:44.276Z,7.48
2023-04-01T15:55:29.606Z,7.49
2023-04-01T15:57:56.623Z,7.50
2023-04-01T16:00:29.187Z,7.48
2023-04-01T16:03:14.628Z,7.47
2023-04-01T16:05:56.787Z,7.48
2023-04-01T16:08:46.035Z,7.46
2023-04-01T16:11:19.890Z,7.43
2023-04-01T16:13:56.658Z,7.43
2023-04-01T16:16:42.642Z,7.40
2023-04-01T16:19:09.786Z,7.42
2023-04-01T16:21:44.270Z,7.35
2023-04-01T16:24:24.566Z,7.34
2023-04-01T16:26:51.691Z,7.34
2023-04-01T16:29:26.424Z,7.32
2023-04-01T16:32:12.260Z,7.29
2023-04-01T16:34:44.355Z,7.27
2023-04-01T16:37:14.634Z,7.22
2023-04-01T16:40:02.223Z,7.19
2023-04-01T16:42:29.386Z,7.17
2023-04-01T16:45:01.393Z,7.14
2023-04-01T16:47:33.666Z,7.09
2023-04-01T16:50:07.816Z,7.05
2023-04-01T16:52:47.668Z,7.05
2023-04-01T16:55:19.172Z,7.01
2023-04-01T16:57:53.318Z,6.98
2023-04-01T17:00:23.517Z,7.02
2023-04-01T17:03:09.209Z,6.99
2023-04-01T17:05:39.056Z,7.01
2023-04-01T17:08:24.856Z,6.95
2023-04-01T17:11:00.166Z,6.96
2023-04-01T17:13:34.898Z,6.96
2023-04-01T17:16:17.515Z,6.92
2023-04-01T17:19:03.714Z,6.91
2023-04-01T17:21:53.901Z,6.87
2023-04-01T17:24:41.375Z,6.90
2023-04-01T17:27:21.810Z,6.93
2023-04-01T17:30:08.770Z,6.86
2023-04-01T17:32:50.808Z,6.86
2023-04-01T17:35:18.510Z,6.84
2023-04-01T17:38:06.949Z,6.87
2023-04-01T17:40:40.405Z,6.84
2023-04-01T17:43:22.978Z,6.84
2023-04-01T17:45:57.528Z,6.80
2023-04-01T17:48:30.575Z,6.81
2023-04-01T17:50:57.604Z,6.78
2023-04-01T17:53:45.748Z,6.79
2023-04-01T17:56:19.909Z,6.77
2023-04-01T17:58:51.159Z,6.81
2023-04-01T18:01:18.272Z,6.77
2023-04-01T18:04:06.670Z,6.76
2023-04-01T18:06:52.787Z,6.77
2023-04-01T18:09:26.115Z,6.73
2023-04-01T18:12:02.289Z,6.70
2023-04-01T18:14:46.760Z,6.74
2023-04-01T18:17:20.693Z,6.77
2023-04-01T18:20:23.250Z,6.76
2023-04-01T18:22:59.915Z,6.73
2023-04-01T18:25:29.887Z,6.75
2023-04-01T18:28:15.594Z,6.73
2023-04-01T18:30:43.713Z,6.71
2023-04-01T18:33:31.436Z,6.73
2023-04-01T18:36:16.661Z,6.72
2023-04-01T18:38:50.549Z,6.73
2023-04-01T18:41:23.740Z,6.71
2023-04-01T18:43:57.305Z,6.71
2023-04-01T18:46:34.986Z,6.72
2023-04-01T18:49:08.467Z,6.71
2023-04-01T18:51:48.166Z,6.70
2023-04-01T18:54:24.235Z,6.68
2023-04-01T18:56:51.750Z,6.70
2023-04-01T18:59:22.850Z,6.67
2023-04-01T19:02:29.766Z,6.67
2023-04-01T19:05:11.858Z,6.67
2023-04-01T19:07:43.281Z,6.65
2023-04-01T19:10:16.372Z,6.66
2023-04-01T19:12:55.751Z,6.65
2023-04-01T19:15:46.679Z,6.64
2023-04-01T19:18:16.743Z,6.65
2023-04-01T19:20:48.555Z,6.63
2023-04-01T19:23:53.943Z,6.63
2023-04-01T19:26:33.652Z,6.63
2023-04-01T19:29:12.222Z,6.63
2023-04-01T19:31:57.692Z,6.63
2023-04-01T19:34:43.922Z,6.62
2023-04-01T19:37:10.984Z,6.64
2023-04-01T19:39:43.954Z,6.62
2023-04-01T19:42:20.327Z,6.62
2023-04-01T19:45:06.083Z,6.61
2023-04-01T19:47:43.696Z,6.62
2023-04-01T19:50:23.318Z,6.62
2023-04-01T19:52:52.724Z,6.60
2023-04-01T19:55:25.562Z,6.60
2023-04-01T19:58:01.803Z,6.62
2023-04-01T20:00:32.729Z,6.60
2023-04-01T20:03:04.460Z,6.58
2023-04-01T20:05:39.808Z,6.58
2023-04-01T20:08:08.397Z,6.55
2023-04-01T20:10:41.878Z,6.56
2023-04-01T20:13:27.801Z,6.53
2023-04-01T20:16:16.432Z,6.50
2023-04-01T20:19:00.759Z,6.51
2023-04-01T20:21:28.534Z,6.55
2023-04-01T20:24:01.704Z,6.52
2023-04-01T20:26:31.892Z,6.50
2023-04-01T20:28:58.924Z,6.52
2023-04-01T20:31:30.920Z,6.51
2023-04-01T20:33:58.643Z,6.51
2023-04-01T20:36:25.995Z,6.50
2023-04-01T20:39:04.844Z,6.51
2023-04-01T20:41:40.228Z,6.50
2023-04-01T20:44:12.983Z,6.51
2023-04-01T20:47:18.416Z,6.49
2023-04-01T20:49:56.431Z,6.48
2023-04-01T20:52:27.122Z,6.50
2023-04-01T20:55:14.274Z,6.46
2023-04-01T20:57:48.141Z,6.47
2023-04-01T21:00:23.404Z,6.46
2023-04-01T21:02:53.925Z,6.49
2023-04-01T21:05:40.003Z,6.44
2023-04-01T21:08:16.352Z,6.41
2023-04-01T21:10:58.670Z,6.40
2023-04-01T21:13:44.333Z,6.39
2023-04-01T21:16:14.322Z,6.36
2023-04-01T21:18:41.420Z,6.32
2023-04-01T21:21:20.879Z,6.35
2023-04-01T21:23:55.393Z,6.35
2023-04-01T21:26:43.687Z,6.32
2023-04-01T21:29:29.630Z,6.33
2023-04-01T21:32:08.025Z,6.35
2023-04-01T21:34:35.331Z,6.32
2023-04-01T21:37:18.051Z,6.33
2023-04-01T21:40:04.860Z,6.31
2023-04-01T21:42:50.617Z,6.34
2023-04-01T21:45:30.475Z,6.32
2023-04-01T21:48:16.548Z,6.32
2023-04-01T21:50:48.405Z,6.31
2023-04-01T21:53:15.491Z,6.32
2023-04-01T21:55:42.557Z,6.32
2023-04-01T21:58:09.626Z,6.30
2023-04-01T22:00:39.552Z,6.29
2023-04-01T22:03:27.748Z,6.31
2023-04-01T22:06:01.906Z,6.31
2023-04-01T22:08:41.993Z,6.30
2023-04-01T22:11:18.158Z,6.32
2023-04-01T22:13:50.438Z,6.30
2023-04-01T22:16:18.230Z,6.31
2023-04-01T22:19:20.443Z,6.32
2023-04-01T22:22:02.087Z,6.35
2023-04-01T22:24:44.452Z,6.31
2023-04-01T22:27:14.473Z,6.30
2023-04-01T22:29:48.707Z,6.32
2023-04-01T22:32:21.754Z,6.31
2023-04-01T22:35:10.716Z,6.31
2023-04-01T22:37:52.890Z,6.29
2023-04-01T22:40:31.827Z,6.30
2023-04-01T22:43:02.634Z,6.31
2023-04-01T22:45:45.073Z,6.28
2023-04-01T22:48:22.187Z,6.28
2023-04-01T22:50:55.504Z,6.28
2023-04-01T22:53:28.756Z,6.28
2023-04-01T22:55:58.185Z,6.30
2023-04-01T22:58:37.408Z,6.28
2023-04-01T23:01:07.435Z,6.27
2023-04-01T23:03:41.312Z,6.27
2023-04-01T23:06:13.234Z,6.28
2023-04-01T23:08:43.129Z,6.25
2023-04-01T23:11:21.345Z,6.24
2023-04-01T23:13:53.600Z,6.23
2023-04-01T23:16:31.814Z,6.23
2023-04-01T23:19:09.367Z,6.21
2023-04-01T23:21:45.852Z,6.21
2023-04-01T23:24:22.142Z,6.23
2023-04-01T23:27:05.511Z,6.21
2023-04-01T23:29:36.374Z,6.21
2023-04-01T23:32:04.792Z,6.22
2023-04-01T23:34:33.378Z,6.21
2023-04-01T23:37:03.639Z,6.18
2023-04-01T23:39:35.674Z,6.16
2023-04-01T23:42:05.378Z,6.16
2023-04-01T23:44:33.451Z,6.14
2023-04-01T23:47:01.802Z,6.17
2023-04-01T23:49:37.949Z,6.14
2023-04-01T23:52:14.100Z,6.16
2023-04-01T23:54:49.113Z,6.12
2023-04-01T23:57:19.026Z,6.14
2023-04-01T23:59:59.625Z,6.16
